createdAt,value
2019-03-13T00:00:20.616Z,12.50
2019-03-13T00:02:49.328Z,13.83
2019-03-13T00:05:18.046Z,11.10
2019-03-13T00:07:46.763Z,11.43
2019-03-13T00:10:16.071Z,9.43
2019-03-13T00:12:44.823Z,9.47
2019-03-13T00:15:14.838Z,10.13
2019-03-13T00:17:43.546Z,8.67
2019-03-13T00:20:12.461Z,7.97
2019-03-13T00:22:41.177Z,11.07
2019-03-13T00:25:10.022Z,12.97
2019-03-13T00:27:38.735Z,10.47
2019-03-13T00:30:09.743Z,9.03
2019-03-13T00:32:38.450Z,8.37
2019-03-13T00:35:09.061Z,8.23
2019-03-13T00:37:37.810Z,8.80
2019-03-13T00:40:10.600Z,8.37
2019-03-13T00:42:39.308Z,8.77
2019-03-13T00:45:10.630Z,9.30
2019-03-13T00:47:39.336Z,9.97
2019-03-13T00:50:10.725Z,10.90
2019-03-13T00:52:39.442Z,7.67
2019-03-13T00:55:08.147Z,8.47
2019-03-13T00:57:36.874Z,9.60
2019-03-13T01:00:08.674Z,9.50
2019-03-13T01:02:47.542Z,7.47
2019-03-13T01:05:32.862Z,7.90
2019-03-13T01:08:01.595Z,10.30
2019-03-13T01:10:30.311Z,8.50
2019-03-13T01:12:59.060Z,8.13
2019-03-13T01:15:27.771Z,8.93
2019-03-13T01:17:56.503Z,7.97
2019-03-13T01:20:25.244Z,8.47
2019-03-13T01:22:53.953Z,9.30
2019-03-13T01:25:22.710Z,9.00
2019-03-13T01:27:51.423Z,8.40
2019-03-13T01:30:20.140Z,8.07
2019-03-13T01:32:50.428Z,7.87
2019-03-13T01:35:26.489Z,8.37
2019-03-13T01:37:55.204Z,7.77
2019-03-13T01:40:23.913Z,8.20
2019-03-13T01:42:52.671Z,7.23
2019-03-13T01:45:21.378Z,6.93
2019-03-13T01:47:50.083Z,7.43
2019-03-13T01:50:18.837Z,7.33
2019-03-13T01:52:47.547Z,8.27
2019-03-13T01:55:16.249Z,8.23
2019-03-13T01:57:46.992Z,7.57
2019-03-13T02:00:16.801Z,8.40
2019-03-13T02:02:45.513Z,8.40
2019-03-13T02:05:14.467Z,7.83
2019-03-13T02:07:43.181Z,11.73
2019-03-13T02:10:12.904Z,15.87
2019-03-13T02:12:44.536Z,12.87
2019-03-13T02:15:16.501Z,9.47
2019-03-13T02:17:45.197Z,10.10
2019-03-13T02:20:14.109Z,7.80
2019-03-13T02:22:42.866Z,7.10
2019-03-13T02:25:13.274Z,6.47
2019-03-13T02:27:42.125Z,6.67
2019-03-13T02:30:20.135Z,4.87
2019-03-13T02:32:48.917Z,5.93
2019-03-13T02:35:17.618Z,5.67
2019-03-13T02:37:46.323Z,6.17
2019-03-13T02:40:16.001Z,6.10
2019-03-13T02:42:44.760Z,5.60
2019-03-13T02:45:14.985Z,5.27
2019-03-13T02:47:44.576Z,6.43
2019-03-13T02:50:17.660Z,8.53
2019-03-13T02:52:46.473Z,8.07
2019-03-13T02:55:15.229Z,11.50
2019-03-13T02:57:43.950Z,11.23
2019-03-13T03:00:16.266Z,6.37
2019-03-13T03:02:49.753Z,6.53
2019-03-13T03:05:18.569Z,5.83
2019-03-13T03:07:47.266Z,5.80
2019-03-13T03:10:16.128Z,6.83
2019-03-13T03:12:44.831Z,5.60
2019-03-13T03:15:16.271Z,8.30
2019-03-13T03:17:45.024Z,7.43
2019-03-13T03:20:18.710Z,6.83
2019-03-13T03:22:47.494Z,6.20
2019-03-13T03:25:18.494Z,6.80
2019-03-13T03:27:47.223Z,9.20
2019-03-13T03:30:24.051Z,9.40
2019-03-13T03:32:52.865Z,13.63
2019-03-13T03:35:21.555Z,15.40
2019-03-13T03:37:50.309Z,12.17
2019-03-13T03:40:23.088Z,11.03
2019-03-13T03:42:50.362Z,12.93
2019-03-13T03:45:19.245Z,11.40
2019-03-13T03:47:48.139Z,11.67
2019-03-13T03:50:17.925Z,14.03
2019-03-13T03:52:47.074Z,12.13
2019-03-13T03:55:16.677Z,9.27
2019-03-13T03:57:45.494Z,10.03
2019-03-13T04:00:21.045Z,10.83
2019-03-13T04:02:49.777Z,17.17
2019-03-13T04:05:18.498Z,17.70
2019-03-13T04:07:47.265Z,19.23
2019-03-13T04:10:16.795Z,11.50
2019-03-13T04:12:45.493Z,12.43
2019-03-13T04:15:16.177Z,13.17
2019-03-13T04:17:44.890Z,30.47
2019-03-13T04:20:15.071Z,17.40
2019-03-13T04:22:47.026Z,20.07
2019-03-13T04:25:27.677Z,18.77
2019-03-13T04:27:56.590Z,13.70
2019-03-13T04:30:25.391Z,11.73
2019-03-13T04:32:54.112Z,10.40
2019-03-13T04:35:22.827Z,28.23
2019-03-13T04:37:51.588Z,21.63
2019-03-13T04:40:20.298Z,13.23
2019-03-13T04:42:49.009Z,20.33
2019-03-13T04:45:17.850Z,20.17
2019-03-13T04:47:46.560Z,17.40
2019-03-13T04:50:16.122Z,15.07
2019-03-13T04:52:44.829Z,22.63
2019-03-13T04:55:14.847Z,23.93
2019-03-13T04:57:44.534Z,26.43
2019-03-13T05:00:17.797Z,23.97
2019-03-13T05:02:46.639Z,24.80
2019-03-13T05:05:37.560Z,20.20
2019-03-13T05:08:06.320Z,21.90
2019-03-13T05:10:35.038Z,15.30
2019-03-13T05:13:03.926Z,12.67
2019-03-13T05:15:32.651Z,34.13
2019-03-13T05:18:01.366Z,32.47
2019-03-13T05:20:30.136Z,18.17
2019-03-13T05:22:58.847Z,27.17
2019-03-13T05:25:27.567Z,30.83
2019-03-13T05:27:56.291Z,60.80
2019-03-13T05:30:25.019Z,124.33
2019-03-13T05:32:53.803Z,208.23
2019-03-13T05:35:22.531Z,235.10
2019-03-13T05:37:51.256Z,184.83
2019-03-13T05:40:19.990Z,56.17
2019-03-13T05:42:48.707Z,29.67
2019-03-13T05:45:17.467Z,21.83
2019-03-13T05:47:46.182Z,14.63
2019-03-13T05:50:14.916Z,26.67
2019-03-13T05:52:47.749Z,20.30
2019-03-13T05:55:16.468Z,24.70
2019-03-13T05:57:45.853Z,17.20
2019-03-13T06:00:16.537Z,25.43
2019-03-13T06:02:47.639Z,34.67
2019-03-13T06:05:15.702Z,50.83
2019-03-13T06:07:44.419Z,49.37
2019-03-13T06:10:14.689Z,50.13
2019-03-13T06:12:43.406Z,48.53
2019-03-13T06:15:13.925Z,76.30
2019-03-13T06:17:42.657Z,65.33
2019-03-13T06:20:16.478Z,95.87
2019-03-13T06:22:45.255Z,62.50
2019-03-13T06:25:14.470Z,40.43
2019-03-13T06:27:46.349Z,62.33
2019-03-13T06:30:19.054Z,38.60
2019-03-13T06:32:47.776Z,35.83
2019-03-13T06:35:16.540Z,39.43
2019-03-13T06:37:47.437Z,33.07
2019-03-13T06:40:20.394Z,33.20
2019-03-13T06:42:49.122Z,38.27
2019-03-13T06:45:18.039Z,30.47
2019-03-13T06:47:46.798Z,30.00
2019-03-13T06:50:20.006Z,25.83
2019-03-13T06:52:48.721Z,35.57
2019-03-13T06:55:17.502Z,39.37
2019-03-13T06:57:46.215Z,36.67
2019-03-13T07:00:27.426Z,30.57
2019-03-13T07:02:57.708Z,35.60
2019-03-13T07:05:28.087Z,39.37
2019-03-13T07:08:04.463Z,38.23
2019-03-13T07:10:34.749Z,39.73
2019-03-13T07:13:11.045Z,36.40
2019-03-13T07:15:41.322Z,23.37
2019-03-13T07:18:17.817Z,13.67
2019-03-13T07:20:51.294Z,18.97
2019-03-13T07:23:21.573Z,17.20
2019-03-13T07:25:51.891Z,23.33
2019-03-13T07:28:22.171Z,22.60
2019-03-13T07:30:58.520Z,18.03
2019-03-13T07:33:31.484Z,11.17
2019-03-13T07:36:01.763Z,8.83
2019-03-13T07:38:38.051Z,10.33
2019-03-13T07:41:26.438Z,16.93
2019-03-13T07:44:12.066Z,13.27
2019-03-13T07:46:42.338Z,13.10
2019-03-13T07:49:12.657Z,21.47
2019-03-13T07:51:42.954Z,12.47
2019-03-13T07:54:13.242Z,11.17
2019-03-13T07:57:01.627Z,16.03
2019-03-13T07:59:48.042Z,15.60
2019-03-13T08:02:21.072Z,17.40
2019-03-13T08:04:51.368Z,26.43
2019-03-13T08:07:27.832Z,61.73
2019-03-13T08:10:13.382Z,16.93
2019-03-13T08:12:55.892Z,16.57
2019-03-13T08:15:26.162Z,20.33
2019-03-13T08:18:14.774Z,53.60
2019-03-13T08:20:54.161Z,23.03
2019-03-13T08:23:30.265Z,25.90
2019-03-13T08:26:00.602Z,25.77
2019-03-13T08:28:37.088Z,21.97
2019-03-13T08:31:10.359Z,21.97
2019-03-13T08:33:48.639Z,16.13
2019-03-13T08:36:18.915Z,18.10
2019-03-13T08:39:07.325Z,23.03
2019-03-13T08:41:53.874Z,22.50
2019-03-13T08:44:24.209Z,18.13
2019-03-13T08:47:12.559Z,17.87
2019-03-13T08:49:48.597Z,23.37
2019-03-13T08:52:33.791Z,18.80
2019-03-13T08:55:04.112Z,15.13
2019-03-13T08:57:40.398Z,16.60
2019-03-13T09:00:31.309Z,26.83
2019-03-13T09:03:01.581Z,12.83
2019-03-13T09:05:44.887Z,44.67
2019-03-13T09:08:48.016Z,25.47
2019-03-13T09:11:33.329Z,16.47
2019-03-13T09:14:12.926Z,6.97
2019-03-13T09:17:01.637Z,12.37
2019-03-13T09:19:34.986Z,12.03
2019-03-13T09:22:05.259Z,7.27
2019-03-13T09:24:38.287Z,6.13
2019-03-13T09:27:14.410Z,8.53
2019-03-13T09:29:53.556Z,6.10
2019-03-13T09:32:35.698Z,15.17
2019-03-13T09:35:07.784Z,5.87
2019-03-13T09:37:54.216Z,9.77
2019-03-13T09:40:40.808Z,5.43
2019-03-13T09:43:11.069Z,6.40
2019-03-13T09:45:45.558Z,6.93
2019-03-13T09:48:15.827Z,6.33
2019-03-13T09:50:58.457Z,7.50
2019-03-13T09:53:28.739Z,5.93
2019-03-13T09:56:17.392Z,7.03
2019-03-13T09:59:05.914Z,7.90
2019-03-13T10:01:36.245Z,6.67
2019-03-13T10:04:09.506Z,14.50
2019-03-13T10:06:46.805Z,35.10
2019-03-13T10:09:17.087Z,9.63
2019-03-13T10:11:50.031Z,8.03
2019-03-13T10:14:20.355Z,8.70
2019-03-13T10:17:10.692Z,6.07
2019-03-13T10:19:51.153Z,5.47
2019-03-13T10:22:37.683Z,15.33
2019-03-13T10:25:24.866Z,37.67
2019-03-13T10:27:55.155Z,10.13
2019-03-13T10:30:37.583Z,7.83
2019-03-13T10:33:23.975Z,8.27
2019-03-13T10:36:03.085Z,9.73
2019-03-13T10:38:33.365Z,27.63
2019-03-13T10:41:20.117Z,9.00
2019-03-13T10:43:53.382Z,8.53
2019-03-13T10:46:23.615Z,9.07
2019-03-13T10:48:53.904Z,13.90
2019-03-13T10:51:24.191Z,34.77
2019-03-13T10:54:12.574Z,11.37
2019-03-13T10:56:45.968Z,9.40
2019-03-13T10:59:31.355Z,16.13
2019-03-13T11:02:10.780Z,15.93
2019-03-13T11:04:41.124Z,28.70
2019-03-13T11:07:14.352Z,15.30
2019-03-13T11:09:47.511Z,11.97
2019-03-13T11:12:20.971Z,10.30
2019-03-13T11:15:07.672Z,11.50
2019-03-13T11:17:40.976Z,7.83
2019-03-13T11:20:20.839Z,10.53
2019-03-13T11:22:51.124Z,9.00
2019-03-13T11:25:30.440Z,6.93
2019-03-13T11:28:01.374Z,8.10
2019-03-13T11:30:46.774Z,8.90
2019-03-13T11:33:35.503Z,8.03
2019-03-13T11:36:08.784Z,8.60
2019-03-13T11:38:44.883Z,7.23
2019-03-13T11:41:31.733Z,11.17
2019-03-13T11:44:02.084Z,12.37
2019-03-13T11:46:32.366Z,7.03
2019-03-13T11:49:19.013Z,8.93
2019-03-13T11:51:49.290Z,8.47
2019-03-13T11:54:28.596Z,9.20
2019-03-13T11:57:01.618Z,14.03
2019-03-13T11:59:34.835Z,26.03
2019-03-13T12:02:05.117Z,15.40
2019-03-13T12:04:47.410Z,13.43
2019-03-13T12:07:20.461Z,11.27
2019-03-13T12:09:56.957Z,11.17
2019-03-13T12:12:27.233Z,8.30
2019-03-13T12:14:57.575Z,9.27
2019-03-13T12:17:33.609Z,14.77
2019-03-13T12:20:06.673Z,15.63
2019-03-13T12:22:40.109Z,7.37
2019-03-13T12:25:15.988Z,8.10
2019-03-13T12:27:52.079Z,9.73
2019-03-13T12:30:22.407Z,9.10
2019-03-13T12:32:55.414Z,13.37
2019-03-13T12:35:25.709Z,7.57
2019-03-13T12:37:55.988Z,8.33
2019-03-13T12:40:26.263Z,7.77
2019-03-13T12:43:14.835Z,7.87
2019-03-13T12:45:57.140Z,6.70
2019-03-13T12:48:27.423Z,7.93
2019-03-13T12:51:15.765Z,10.57
2019-03-13T12:53:48.978Z,7.27
2019-03-13T12:56:30.086Z,8.10
2019-03-13T12:59:00.108Z,8.13
2019-03-13T13:01:36.126Z,8.17
2019-03-13T13:04:15.230Z,10.07
2019-03-13T13:06:51.251Z,9.30
2019-03-13T13:09:21.587Z,8.97
2019-03-13T13:11:51.864Z,7.37
2019-03-13T13:14:34.478Z,9.07
2019-03-13T13:17:07.843Z,13.60
2019-03-13T13:19:36.575Z,7.63
2019-03-13T13:22:05.387Z,12.33
2019-03-13T13:24:34.095Z,9.87
2019-03-13T13:27:02.946Z,9.13
2019-03-13T13:29:31.652Z,9.53
2019-03-13T13:32:00.368Z,10.20
2019-03-13T13:34:29.083Z,12.03
2019-03-13T13:36:57.794Z,12.60
2019-03-13T13:39:26.593Z,10.27
2019-03-13T13:41:55.301Z,10.53
2019-03-13T13:44:24.009Z,11.57
2019-03-13T13:46:52.730Z,12.40
2019-03-13T13:49:21.427Z,11.63
2019-03-13T13:51:50.183Z,14.13
2019-03-13T13:54:18.897Z,11.27
2019-03-13T13:56:47.602Z,11.23
2019-03-13T13:59:16.334Z,13.63
2019-03-13T14:01:45.039Z,12.73
2019-03-13T14:04:13.812Z,14.03
2019-03-13T14:06:42.515Z,14.47
2019-03-13T14:09:11.228Z,62.27
2019-03-13T14:11:39.954Z,18.47
2019-03-13T14:14:08.668Z,16.10
2019-03-13T14:16:37.426Z,16.70
2019-03-13T14:19:06.141Z,29.83
2019-03-13T14:21:34.856Z,33.73
2019-03-13T14:24:03.578Z,18.17
2019-03-13T14:26:32.293Z,29.23
2019-03-13T14:29:01.045Z,27.77
2019-03-13T14:31:29.765Z,17.70
2019-03-13T14:33:58.481Z,27.00
2019-03-13T14:36:27.203Z,22.13
2019-03-13T14:38:55.925Z,29.00
2019-03-13T14:41:26.558Z,26.57
2019-03-13T14:43:55.136Z,20.80
2019-03-13T14:46:23.837Z,12.57
2019-03-13T14:48:52.555Z,13.70
2019-03-13T14:51:21.269Z,13.87
2019-03-13T14:53:50.027Z,11.67
2019-03-13T14:56:18.732Z,13.00
2019-03-13T14:58:47.452Z,10.17
2019-03-13T15:01:16.161Z,15.50
2019-03-13T15:03:44.915Z,14.07
2019-03-13T15:06:13.719Z,15.47
2019-03-13T15:08:42.405Z,19.87
2019-03-13T15:11:11.119Z,19.20
2019-03-13T15:13:39.839Z,14.37
2019-03-13T15:16:08.548Z,11.77
2019-03-13T15:18:37.309Z,14.57
2019-03-13T15:21:06.022Z,17.00
2019-03-13T15:23:34.732Z,13.43
2019-03-13T15:26:03.465Z,16.70
2019-03-13T15:28:32.192Z,16.03
2019-03-13T15:31:00.942Z,19.23
2019-03-13T15:33:29.663Z,20.07
2019-03-13T15:35:58.378Z,29.20
2019-03-13T15:38:27.103Z,41.20
2019-03-13T15:40:58.006Z,19.17
2019-03-13T15:43:26.331Z,46.90
2019-03-13T15:45:57.987Z,39.07
2019-03-13T15:48:26.704Z,21.43
2019-03-13T15:50:55.433Z,23.73
2019-03-13T15:53:24.151Z,18.10
2019-03-13T15:55:52.896Z,29.30
2019-03-13T15:58:21.621Z,19.17
2019-03-13T16:00:50.336Z,44.47
2019-03-13T16:03:19.057Z,26.13
2019-03-13T16:05:47.769Z,31.30
2019-03-13T16:08:16.529Z,20.13
2019-03-13T16:10:45.250Z,31.67
2019-03-13T16:13:13.971Z,27.60
2019-03-13T16:15:46.476Z,30.40
2019-03-13T16:18:15.226Z,40.03
2019-03-13T16:20:45.751Z,23.77
2019-03-13T16:23:17.045Z,25.40
2019-03-13T16:25:44.890Z,22.33
2019-03-13T16:28:13.605Z,22.27
2019-03-13T16:30:46.852Z,23.87
2019-03-13T16:33:15.594Z,28.40
2019-03-13T16:35:44.320Z,29.07
2019-03-13T16:38:13.021Z,41.43
2019-03-13T16:40:41.795Z,42.53
2019-03-13T16:43:10.511Z,53.47
2019-03-13T16:45:39.215Z,43.00
2019-03-13T16:48:07.980Z,37.60
2019-03-13T16:50:37.917Z,39.63
2019-03-13T16:53:06.707Z,35.53
2019-03-13T16:55:35.478Z,33.97
2019-03-13T16:58:04.289Z,40.70
2019-03-13T17:00:34.112Z,45.07
2019-03-13T17:03:03.075Z,48.30
2019-03-13T17:05:31.799Z,25.03
2019-03-13T17:08:00.509Z,21.33
2019-03-13T17:10:30.159Z,19.27
2019-03-13T17:12:58.893Z,20.07
2019-03-13T17:15:27.701Z,20.13
2019-03-13T17:17:56.829Z,21.50
2019-03-13T17:20:27.873Z,19.10
2019-03-13T17:22:56.675Z,17.30
2019-03-13T17:25:25.585Z,17.53
2019-03-13T17:27:54.312Z,20.80
2019-03-13T17:30:28.706Z,18.63
2019-03-13T17:32:57.417Z,28.27
2019-03-13T17:35:26.164Z,31.67
2019-03-13T17:37:54.879Z,25.63
2019-03-13T17:40:34.352Z,24.80
2019-03-13T17:43:03.272Z,38.83
2019-03-13T17:45:31.983Z,34.30
2019-03-13T17:48:00.832Z,41.80
2019-03-13T17:50:29.560Z,29.00
2019-03-13T17:52:58.273Z,31.17
2019-03-13T17:55:29.939Z,37.70
2019-03-13T17:57:58.734Z,31.00
2019-03-13T18:00:48.820Z,31.10
2019-03-13T18:03:17.735Z,35.27
2019-03-13T18:05:46.651Z,35.17
2019-03-13T18:08:15.360Z,32.00
2019-03-13T18:10:44.100Z,25.80
2019-03-13T18:13:12.849Z,27.13
2019-03-13T18:15:41.638Z,22.67
2019-03-13T18:18:10.419Z,23.10
2019-03-13T18:20:39.130Z,22.43
2019-03-13T18:23:07.861Z,27.33
2019-03-13T18:25:36.611Z,33.17
2019-03-13T18:28:05.424Z,27.90
2019-03-13T18:30:35.135Z,28.27
2019-03-13T18:33:03.860Z,42.07
2019-03-13T18:35:32.567Z,51.57
2019-03-13T18:38:01.279Z,40.80
2019-03-13T18:40:30.054Z,43.10
2019-03-13T18:42:58.773Z,41.07
2019-03-13T18:45:31.013Z,33.53
2019-03-13T18:47:59.911Z,40.40
2019-03-13T18:50:28.635Z,61.43
2019-03-13T18:52:57.345Z,53.07
2019-03-13T18:55:33.632Z,43.27
2019-03-13T18:58:02.354Z,57.27
2019-03-13T19:00:35.590Z,46.03
2019-03-13T19:03:06.310Z,41.37
2019-03-13T19:05:38.748Z,54.90
2019-03-13T19:08:07.862Z,64.13
2019-03-13T19:10:36.684Z,55.50
2019-03-13T19:13:05.715Z,50.30
2019-03-13T19:15:34.423Z,24.90
2019-03-13T19:18:03.142Z,23.53
2019-03-13T19:20:32.268Z,20.83
2019-03-13T19:23:00.969Z,13.73
2019-03-13T19:25:29.680Z,12.43
2019-03-13T19:27:58.430Z,11.77
2019-03-13T19:30:37.524Z,14.03
2019-03-13T19:33:05.376Z,14.27
2019-03-13T19:35:34.085Z,13.30
2019-03-13T19:38:08.668Z,16.00
2019-03-13T19:40:37.378Z,14.93
2019-03-13T19:43:06.096Z,43.90
2019-03-13T19:45:45.402Z,17.47
2019-03-13T19:48:14.104Z,20.07
2019-03-13T19:50:42.866Z,22.13
2019-03-13T19:53:11.680Z,30.80
2019-03-13T19:55:42.436Z,33.07
2019-03-13T19:58:11.242Z,28.17
2019-03-13T20:00:40.010Z,25.80
2019-03-13T20:03:14.322Z,26.10
2019-03-13T20:05:45.912Z,34.60
2019-03-13T20:08:14.153Z,25.90
2019-03-13T20:10:43.061Z,23.90
2019-03-13T20:13:11.763Z,18.10
2019-03-13T20:15:40.530Z,21.63
2019-03-13T20:18:09.267Z,19.93
2019-03-13T20:20:37.958Z,19.63
2019-03-13T20:23:09.597Z,23.47
2019-03-13T20:25:38.307Z,28.07
2019-03-13T20:28:07.025Z,29.83
2019-03-13T20:30:35.801Z,20.80
2019-03-13T20:33:04.510Z,17.47
2019-03-13T20:35:36.411Z,20.90
2019-03-13T20:38:03.809Z,23.80
2019-03-13T20:40:32.526Z,23.23
2019-03-13T20:43:02.478Z,23.90
2019-03-13T20:45:31.753Z,25.00
2019-03-13T20:48:00.463Z,26.50
2019-03-13T20:50:36.541Z,34.67
2019-03-13T20:52:59.675Z,36.77
2019-03-13T20:55:28.387Z,38.43
2019-03-13T20:57:57.118Z,35.40
2019-03-13T21:00:28.973Z,35.30
2019-03-13T21:02:58.331Z,34.00
2019-03-13T21:05:27.037Z,39.73
2019-03-13T21:07:55.843Z,37.73
2019-03-13T21:10:24.771Z,38.50
2019-03-13T21:12:53.580Z,50.93
2019-03-13T21:15:26.717Z,117.53
2019-03-13T21:17:55.648Z,349.07
2019-03-13T21:20:24.565Z,134.87
2019-03-13T21:22:53.496Z,39.23
2019-03-13T21:25:24.075Z,36.60
2019-03-13T21:27:52.827Z,41.67
2019-03-13T21:30:28.471Z,35.90
2019-03-13T21:32:57.635Z,33.13
2019-03-13T21:35:26.343Z,38.70
2019-03-13T21:37:55.059Z,37.83
2019-03-13T21:40:27.678Z,31.27
2019-03-13T21:42:56.488Z,30.53
2019-03-13T21:45:25.348Z,32.57
2019-03-13T21:47:54.340Z,32.03
2019-03-13T21:50:23.818Z,28.53
2019-03-13T21:52:52.529Z,30.30
2019-03-13T21:55:21.342Z,29.30
2019-03-13T21:57:51.873Z,30.47
2019-03-13T22:00:25.043Z,29.47
2019-03-13T22:02:53.860Z,27.43
2019-03-13T22:05:27.431Z,26.23
2019-03-13T22:07:53.844Z,25.73
2019-03-13T22:10:22.607Z,24.57
2019-03-13T22:12:51.635Z,23.37
2019-03-13T22:15:23.975Z,22.80
2019-03-13T22:17:52.899Z,23.90
2019-03-13T22:20:21.634Z,28.47
2019-03-13T22:22:50.589Z,27.37
2019-03-13T22:25:20.245Z,27.33
2019-03-13T22:27:49.346Z,28.17
2019-03-13T22:30:24.796Z,29.97
2019-03-13T22:32:53.621Z,30.57
2019-03-13T22:35:22.400Z,28.17
2019-03-13T22:37:51.084Z,27.63
2019-03-13T22:40:19.992Z,30.60
2019-03-13T22:42:48.727Z,27.93
2019-03-13T22:45:18.347Z,30.97
2019-03-13T22:47:47.106Z,26.63
2019-03-13T22:50:23.187Z,31.37
2019-03-13T22:52:51.950Z,26.13
2019-03-13T22:55:20.667Z,25.90
2019-03-13T22:57:49.383Z,25.37
2019-03-13T23:00:25.408Z,27.27
2019-03-13T23:02:54.129Z,25.57
2019-03-13T23:05:22.935Z,23.23
2019-03-13T23:07:51.662Z,22.83
2019-03-13T23:10:31.669Z,24.50
2019-03-13T23:13:00.365Z,24.07
2019-03-13T23:15:29.288Z,22.60
2019-03-13T23:17:57.995Z,24.43
2019-03-13T23:20:26.709Z,23.27
2019-03-13T23:22:55.479Z,23.77
2019-03-13T23:25:24.185Z,26.43
2019-03-13T23:27:52.895Z,23.70
2019-03-13T23:30:21.619Z,23.80
2019-03-13T23:32:50.338Z,22.73
2019-03-13T23:35:19.203Z,23.23
2019-03-13T23:37:47.939Z,26.27
2019-03-13T23:40:16.650Z,22.90
2019-03-13T23:42:45.368Z,23.03
2019-03-13T23:45:14.280Z,24.03
2019-03-13T23:47:43.037Z,22.97
2019-03-13T23:50:15.310Z,22.90
2019-03-13T23:52:44.024Z,24.33
2019-03-13T23:55:12.867Z,27.17
2019-03-13T23:57:41.552Z,25.63
